Atka, AK

3:57 PM HDT on October 23, 2017 (GMT -0900)
Atka

Weather History for PAAK - March, 2012

Change the Weather History Date:

Wednesday, March 21, 2012

  Actual Average (PADK) Record (PADK)
Temperature  
Mean Temperature 36 °F -  
Max Temperature 41 °F 38 °F 50 °F (1991)
Min Temperature 32 °F 29 °F 15 °F (1989)
Degree Days  
Heating Degree Days 28    
Moisture  
Dew Point 28 °F    
Average Humidity 77    
Maximum Humidity 93    
Minimum Humidity 41    
Precipitation  
Precipitation 0.00 in - - ()
Sea Level Pressure  
Sea Level Pressure 30.10 in    
Wind  
Wind Speed 19 mph (ESE)    
Max Wind Speed 26 mph    
Max Gust Speed 32 mph    
Visibility 7 miles    
Events      
Averages and records for this station are not official NWS values.
T = Trace of Precipitation, MM = Missing Value Source: NWS Daily Summary

Daily Weather History Graph

Daily Weather History Graph

Search for Another Location

Airport or City:

Trip Planner

Search our weather history database for the weather conditions in past years. The results will help you decide how hot, cold, wet, or windy it might be!

Date:

Astronomy

Mar. 21, 2012 Rise Set
Actual Time 8:35 AM HDT 8:53 PM HDT
Civil Twilight 8:01 AM HDT 9:27 PM HDT
Nautical Twilight 7:21 AM HDT 10:07 PM HDT
Astronomical Twilight 6:39 AM HDT 10:49 PM HDT
Moon 7:53 AM HDT (3/21) 8:37 PM HDT (3/21)
Length of Visible Light 13h 25m
Length of Day
12h 17m
Waning Crescent, 1% of the Moon is Illuminated
Mar 21
Waning Crescent
Mar 22
New
Mar 30
First Quarter
Apr 6
Full
Apr 13
Last Quarter

Hourly Weather History & Observations

Time (HDT) Temp. Windchill Dew Point Humidity Pressure Visibility Wind Dir Wind Speed Gust Speed Precip Events Conditions
12:16 AM 35.6 °F 23.2 °F 26.6 °F 70% 30.25 in 10.0 mi WNW 26.5 mph 32.2 mph N/A   Unknown
12:36 AM 35.6 °F 23.4 °F 26.6 °F 70% 30.25 in 10.0 mi WNW 25.3 mph 31.1 mph N/A   Unknown
12:56 AM 35.6 °F 23.7 °F 26.6 °F 70% 30.25 in 10.0 mi WNW 24.2 mph 32.2 mph N/A   Unknown
1:16 AM 35.6 °F 24.2 °F 26.6 °F 70% 30.25 in 10.0 mi WNW 21.9 mph 32.2 mph N/A   Unknown
1:36 AM 35.6 °F 24.0 °F 26.6 °F 70% 30.25 in 10.0 mi NW 23.0 mph 32.2 mph N/A   Unknown
1:56 AM 35.6 °F 23.7 °F 26.6 °F 70% 30.24 in 10.0 mi NW 24.2 mph 29.9 mph N/A   Unknown
2:16 AM 35.6 °F 24.5 °F 26.6 °F 70% 30.25 in 10.0 mi NW 20.7 mph 29.9 mph N/A   Unknown
2:36 AM 35.6 °F 24.5 °F 26.6 °F 70% 30.26 in 10.0 mi WNW 20.7 mph 25.3 mph N/A   Unknown
2:56 AM 33.8 °F 22.8 °F 26.6 °F 75% 30.25 in 10.0 mi WNW 18.4 mph 23.0 mph N/A   Unknown
3:16 AM 33.8 °F 23.5 °F 26.6 °F 75% 30.26 in 10.0 mi WNW 16.1 mph - N/A   Unknown
3:36 AM 33.8 °F 23.9 °F 24.8 °F 70% 30.25 in 10.0 mi NW 15.0 mph - N/A   Unknown
3:56 AM 33.8 °F 23.5 °F 24.8 °F 70% 30.24 in 10.0 mi NW 16.1 mph - N/A   Unknown
4:16 AM 33.8 °F 25.3 °F 24.8 °F 70% 30.24 in 10.0 mi NW 11.5 mph 18.4 mph N/A   Unknown
4:36 AM 32.0 °F 23.0 °F 24.8 °F 75% 30.25 in 10.0 mi NW 11.5 mph - N/A   Unknown
4:56 AM 32.0 °F 22.5 °F 24.8 °F 75% 30.27 in 10.0 mi WNW 12.7 mph - N/A   Unknown
5:16 AM 33.8 °F 24.8 °F 23.0 °F 65% 30.28 in 10.0 mi WNW 12.7 mph - N/A   Unknown
5:36 AM 32.0 °F 24.8 °F 23.0 °F 69% 30.27 in 10.0 mi NW 8.1 mph - N/A   Unknown
5:56 AM 32.0 °F 23.0 °F 24.8 °F 75% 30.27 in 10.0 mi WNW 11.5 mph - N/A   Unknown
6:16 AM 32.0 °F 27.5 °F 23.0 °F 69% 30.29 in 10.0 mi WNW 4.6 mph - N/A   Unknown
6:36 AM 32.0 °F 25.6 °F 24.8 °F 75% 30.28 in 10.0 mi WNW 6.9 mph - N/A   Unknown
6:56 AM 32.0 °F 24.2 °F 24.8 °F 75% 30.28 in 10.0 mi West 9.2 mph - N/A   Unknown
10:56 AM 33.8 °F 25.3 °F 12.2 °F 41% 30.18 in 10.0 mi East 11.5 mph - N/A   Unknown
11:16 AM 35.6 °F 25.9 °F 23.0 °F 60% 30.17 in 10.0 mi SE 16.1 mph - N/A   Clear
11:36 AM 35.6 °F 25.5 °F 24.8 °F 65% 30.17 in 10.0 mi ESE 17.3 mph - N/A   Mostly Cloudy
11:56 AM 35.6 °F 24.8 °F 24.8 °F 65% 30.20 in 10.0 mi ESE 19.6 mph - N/A   Overcast
12:16 PM 35.6 °F 24.8 °F 24.8 °F 65% 30.21 in 10.0 mi ESE 19.6 mph - N/A   Overcast
12:36 PM 35.6 °F 25.2 °F 24.8 °F 65% 30.20 in 10.0 mi ESE 18.4 mph - N/A   Overcast
12:56 PM 35.6 °F 25.5 °F 26.6 °F 70% 30.18 in 9.0 mi ESE 17.3 mph - N/A   Overcast
1:16 PM 35.6 °F 25.5 °F 24.8 °F 65% 30.16 in 10.0 mi ESE 17.3 mph - N/A   Overcast
1:36 PM 35.6 °F 25.5 °F 26.6 °F 70% 30.15 in 9.0 mi ESE 17.3 mph - N/A   Overcast
1:56 PM 35.6 °F 24.5 °F 24.8 °F 65% 30.14 in 10.0 mi ESE 20.7 mph 25.3 mph N/A   Overcast
2:16 PM 35.6 °F 25.2 °F 26.6 °F 70% 30.12 in 9.0 mi ESE 18.4 mph - N/A   Overcast
2:36 PM 35.6 °F 24.8 °F 26.6 °F 70% 30.11 in 9.0 mi ESE 19.6 mph - N/A   Overcast
2:56 PM 35.6 °F 23.7 °F 28.4 °F 75% 30.09 in 8.0 mi ESE 24.2 mph - N/A   Overcast
3:16 PM 33.8 °F 21.6 °F 28.4 °F 81% 30.08 in 1.8 mi ESE 23.0 mph 31.1 mph N/A   Overcast
3:36 PM 33.8 °F 21.3 °F 30.2 °F 87% 30.06 in 1.5 mi ESE 24.2 mph 27.6 mph N/A   Overcast
4:36 PM 33.8 °F 22.2 °F 30.2 °F 87% 30.02 in - SE 20.7 mph - N/A   Unknown
4:56 PM 33.8 °F 21.6 °F 30.2 °F 87% 30.01 in 0.8 mi ESE 23.0 mph - N/A   Overcast
5:16 PM 33.8 °F 21.6 °F 32.0 °F 93% 30.01 in 1.2 mi ESE 23.0 mph - N/A   Overcast
5:36 PM 33.8 °F 21.0 °F 30.2 °F 87% 29.99 in 1.0 mi ESE 25.3 mph - N/A   Overcast
6:16 PM 33.8 °F 21.6 °F 32.0 °F 93% 29.97 in 2.5 mi ESE 23.0 mph 27.6 mph N/A   Overcast
6:36 PM 33.8 °F 21.9 °F 32.0 °F 93% 29.97 in 0.8 mi ESE 21.9 mph 31.1 mph N/A   Overcast
6:56 PM 33.8 °F 23.2 °F 32.0 °F 93% 29.95 in 1.5 mi ESE 17.3 mph - N/A   Overcast
7:16 PM 35.6 °F 24.8 °F 32.0 °F 87% 29.94 in 3.0 mi SE 19.6 mph 25.3 mph N/A   Overcast
7:36 PM 35.6 °F 26.6 °F 32.0 °F 87% 29.93 in 4.0 mi ESE 13.8 mph 24.2 mph N/A   Overcast
7:56 PM 35.6 °F 26.6 °F 33.8 °F 93% 29.91 in 4.0 mi SE 13.8 mph - N/A   Overcast
8:16 PM 35.6 °F 26.6 °F 33.8 °F 93% 29.89 in 7.0 mi SE 13.8 mph - N/A   Overcast
8:36 PM 35.6 °F 28.0 °F 33.8 °F 93% 29.88 in 5.0 mi SE 10.4 mph - N/A   Overcast
8:56 PM 37.4 °F 30.8 °F 33.8 °F 87% 29.86 in 4.0 mi ESE 9.2 mph - N/A   Overcast
9:16 PM 37.4 °F 28.9 °F 35.6 °F 93% 29.85 in 7.0 mi East 13.8 mph 18.4 mph N/A   Overcast
9:36 PM 37.4 °F 28.2 °F 35.6 °F 93% 29.83 in 5.0 mi ENE 16.1 mph - N/A   Overcast
9:56 PM 39.2 °F 30.2 °F 37.4 °F 93% 29.82 in 6.0 mi East 17.3 mph - N/A   Overcast
10:16 PM 39.2 °F 32.5 °F 35.6 °F 87% 29.81 in 5.0 mi ESE 10.4 mph - N/A   Overcast
10:36 PM 39.2 °F 31.2 °F 37.4 °F 93% 29.81 in 6.0 mi South 13.8 mph - N/A   Overcast
10:56 PM 39.2 °F 32.0 °F 35.6 °F 87% 29.80 in 6.0 mi South 11.5 mph - N/A   Overcast
11:16 PM 41.0 °F 32.8 °F 37.4 °F 87% 29.78 in 5.0 mi South 16.1 mph 25.3 mph N/A   Overcast
11:36 PM 41.0 °F 32.2 °F 37.4 °F 87% 29.78 in 3.0 mi South 18.4 mph 27.6 mph N/A   Mostly Cloudy
11:56 PM 41.0 °F 31.6 °F 37.4 °F 87% 29.77 in 3.0 mi SSW 20.7 mph 26.5 mph N/A   Overcast